Time;durP1;ratioP1;P1;durP2;ratioP2;P2;SDS_P1;SDS_P2;PMS_P1;PMS_P2;Temp;Humidity;BMP_temperature;BMP_pressure;BME280_temperature;BME280_humidity;BME280_pressure;Samples;Min_cycle;Max_cycle;Signal;HPM_P1;HPM_P2
2022/03/31 00:01:21;;;;;;;;;;;;;;;;;;5111890;27;20288;-66
2022/03/31 00:09:59;;;;;;;;;;;;;;;;;;5091600;27;19919;-66
2022/03/31 00:12:25;;;;;;;;;;;;;;;;;;5090909;28;20310;-66
2022/03/31 00:14:51;;;;;;;;;;;;;;;;;;5091230;28;19977;-66
2022/03/31 00:17:17;;;;;;;;;;;;;;;;;;5091512;28;20002;-66
2022/03/31 00:19:43;;;;;;;;;;;;;;;;;;5089811;28;20245;-67
2022/03/31 00:22:09;;;;;;;;;;;;;;;;;;5091185;28;20004;-66
2022/03/31 00:24:35;;;;;;;;;;;;;;;;;;5089812;28;19915;-67
2022/03/31 00:27:01;;;;;;;;;;;;;;;;;;5091037;28;19908;-67
2022/03/31 00:29:27;;;;;;;;;;;;;;;;;;5091000;28;20283;-67
2022/03/31 00:31:54;;;;;;;;;;;;;;;;;;5089698;28;19931;-66
2022/03/31 00:34:20;;;;;;;;;;;;;;;;;;5090708;28;19908;-66
2022/03/31 00:36:46;;;;;;;;;;;;;;;;;;5089610;28;19908;-67
2022/03/31 00:41:57;;;;;;;;;;;;;;;;;;5090412;28;19923;-67
2022/03/31 00:47:12;;;;;;;;;;;;;;;;;;5112541;27;19916;-65
2022/03/31 00:50:22;;;;;;;;;;;;;;;;;;5112183;27;19916;-65
2022/03/31 00:52:48;;;;;;;;;;;;;;;;;;5111701;28;19912;-65
2022/03/31 00:55:25;;;;;;;;;;;;;;;;;;5091140;27;19919;-65
2022/03/31 00:57:55;;;;;;;;;;;;;;;;;;5091345;28;19916;-65
2022/03/31 01:02:27;;;;;;;;;;;;;;;;;;5091260;28;19913;-65
2022/03/31 01:04:53;;;;;;;;;;;;;;;;;;5091302;28;20440;-65
2022/03/31 01:10:11;;;;;;;;;;;;;;;;;;5111483;27;20372;-65
2022/03/31 01:12:37;;;;;;;;;;;;;;;;;;5111633;28;19919;-66
2022/03/31 01:15:06;;;;;;;;;;;;;;;;;;5110328;28;20374;-65
2022/03/31 01:17:32;;;;;;;;;;;;;;;;;;5109948;28;20368;-65
2022/03/31 01:19:58;;;;;;;;;;;;;;;;;;5110208;28;19950;-65
2022/03/31 01:23:34;;;;;;;;;;;;;;;;;;5111700;27;20422;-65
2022/03/31 01:25:59;;;;;;;;;;;;;;;;;;5110325;28;19999;-65
2022/03/31 01:28:25;;;;;;;;;;;;;;;;;;5110346;28;19994;-66
2022/03/31 01:39:09;;;;;;;;;;;;;;;;;;5091981;28;19912;-65
2022/03/31 01:41:35;;;;;;;;;;;;;;;;;;5090029;28;19919;-65
2022/03/31 01:45:56;;;;;;;;;;;;;;;;;;5091633;27;20296;-66
2022/03/31 01:48:22;;;;;;;;;;;;;;;;;;5091299;28;19998;-66
2022/03/31 01:50:48;;;;;;;;;;;;;;;;;;5089574;28;19936;-66
2022/03/31 01:53:19;;;;;;;;;;;;;;;;;;5091244;28;19931;-66
2022/03/31 01:55:45;;;;;;;;;;;;;;;;;;5091261;28;19912;-67
2022/03/31 01:58:11;;;;;;;;;;;;;;;;;;5090797;28;19955;-66
2022/03/31 02:00:37;;;;;;;;;;;;;;;;;;5089759;28;19982;-67
2022/03/31 02:05:11;;;;;;;;;;;;;;;;;;5090949;27;19912;-65
2022/03/31 02:07:38;;;;;;;;;;;;;;;;;;5091365;28;19919;-65
2022/03/31 02:10:04;;;;;;;;;;;;;;;;;;5089945;28;19955;-65
2022/03/31 02:12:30;;;;;;;;;;;;;;;;;;5090828;28;19951;-65
2022/03/31 02:15:22;;;;;;;;;;;;;;;;;;5112431;27;19916;-65
2022/03/31 02:17:48;;;;;;;;;;;;;;;;;;5110401;28;19916;-65
2022/03/31 02:20:14;;;;;;;;;;;;;;;;;;5109913;28;19908;-66
2022/03/31 02:24:00;;;;;;;;;;;;;;;;;;5111681;27;19912;-65
2022/03/31 02:26:26;;;;;;;;;;;;;;;;;;5110051;28;19911;-65
2022/03/31 02:32:00;;;;;;;;;;;;;;;;;;5091487;27;19947;-65
2022/03/31 02:34:26;;;;;;;;;;;;;;;;;;5090857;28;20341;-65
2022/03/31 02:43:52;;;;;;;;;;;;;;;;;;5091481;28;19916;-65
2022/03/31 02:46:31;;;;;;;;;;;;;;;;;;5112056;27;19923;-66
2022/03/31 02:48:57;;;;;;;;;;;;;;;;;;5110021;28;19912;-66
2022/03/31 02:51:23;;;;;;;;;;;;;;;;;;5110306;28;19934;-66
2022/03/31 02:56:33;;;;;;;;;;;;;;;;;;5111564;28;19961;-65
2022/03/31 03:01:33;;;;;;;;;;;;;;;;;;5111634;27;20372;-65
2022/03/31 03:03:59;;;;;;;;;;;;;;;;;;5111673;28;20006;-66
2022/03/31 03:06:25;;;;;;;;;;;;;;;;;;5110331;28;19990;-66
2022/03/31 03:09:22;;;;;;;;;;;;;;;;;;5091096;27;19913;-65
2022/03/31 03:15:41;;;;;;;;;;;;;;;;;;5111848;27;19923;-65
2022/03/31 03:18:08;;;;;;;;;;;;;;;;;;5110385;28;19995;-65
2022/03/31 03:21:47;;;;;;;;;;;;;;;;;;5112125;27;19916;-65
2022/03/31 03:24:51;;;;;;;;;;;;;;;;;;5091946;27;19919;-65
2022/03/31 03:30:13;;;;;;;;;;;;;;;;;;5091286;27;19919;-65
2022/03/31 03:35:03;;;;;;;;;;;;;;;;;;5111840;27;20394;-65
2022/03/31 03:37:29;;;;;;;;;;;;;;;;;;5111297;28;19919;-66
2022/03/31 03:42:14;;;;;;;;;;;;;;;;;;5112419;27;20292;-66
2022/03/31 03:44:40;;;;;;;;;;;;;;;;;;5109978;28;19912;-65
2022/03/31 03:47:56;;;;;;;;;;;;;;;;;;5112508;27;19957;-65
2022/03/31 03:50:22;;;;;;;;;;;;;;;;;;5110016;28;20006;-65
2022/03/31 03:53:30;;;;;;;;;;;;;;;;;;5111931;27;19916;-65
2022/03/31 03:56:43;;;;;;;;;;;;;;;;;;5112616;27;19938;-65
2022/03/31 03:59:09;;;;;;;;;;;;;;;;;;5111338;28;20006;-65
2022/03/31 04:03:33;;;;;;;;;;;;;;;;;;5112082;27;19916;-65
2022/03/31 04:08:09;;;;;;;;;;;;;;;;;;5031298;28;19919;-67
2022/03/31 04:10:35;;;;;;;;;;;;;;;;;;5031314;28;20349;-67
2022/03/31 04:14:41;;;;;;;;;;;;;;;;;;5112568;27;19912;-65
2022/03/31 04:17:07;;;;;;;;;;;;;;;;;;5110440;28;20010;-65
2022/03/31 04:19:33;;;;;;;;;;;;;;;;;;5110249;28;20320;-71
2022/03/31 04:24:04;;;;;;;;;;;;;;;;;;5112562;27;19916;-69
2022/03/31 04:26:30;;;;;;;;;;;;;;;;;;5111352;28;20011;-69
2022/03/31 04:29:14;;;;;;;;;;;;;;;;;;5111935;27;19923;-69
2022/03/31 04:32:04;;;;;;;;;;;;;;;;;;5111893;27;19912;-70
2022/03/31 04:34:30;;;;;;;;;;;;;;;;;;5109964;28;20007;-70
2022/03/31 04:36:56;;;;;;;;;;;;;;;;;;5110324;28;19908;-70
2022/03/31 04:39:22;;;;;;;;;;;;;;;;;;5109840;28;19912;-70
2022/03/31 04:41:48;;;;;;;;;;;;;;;;;;5110244;28;20260;-69
2022/03/31 04:44:14;;;;;;;;;;;;;;;;;;5111465;28;19908;-70
2022/03/31 04:47:39;;;;;;;;;;;;;;;;;;5111424;27;19922;-69
2022/03/31 04:50:56;;;;;;;;;;;;;;;;;;5112066;27;19916;-69
2022/03/31 04:53:22;;;;;;;;;;;;;;;;;;5110092;28;20003;-69
2022/03/31 04:55:48;;;;;;;;;;;;;;;;;;5109503;28;19912;-68
2022/03/31 05:00:20;;;;;;;;;;;;;;;;;;5112528;27;19916;-69
2022/03/31 05:05:37;;;;;;;;;;;;;;;;;;5111473;27;19930;-70
2022/03/31 05:08:03;;;;;;;;;;;;;;;;;;5111300;28;19958;-69
2022/03/31 05:12:15;;;;;;;;;;;;;;;;;;5112396;27;20232;-69
2022/03/31 05:15:19;;;;;;;;;;;;;;;;;;5110690;27;19916;-68
2022/03/31 05:17:45;;;;;;;;;;;;;;;;;;5109999;28;19947;-69
2022/03/31 05:20:11;;;;;;;;;;;;;;;;;;5111435;28;20398;-69
2022/03/31 05:22:37;;;;;;;;;;;;;;;;;;5110957;28;19908;-69
2022/03/31 05:27:11;;;;;;;;;;;;;;;;;;5088182;27;19921;-69
2022/03/31 05:29:37;;;;;;;;;;;;;;;;;;5073173;28;19916;-71
2022/03/31 05:35:04;;;;;;;;;;;;;;;;;;5109904;27;20519;-71
2022/03/31 05:37:30;;;;;;;;;;;;;;;;;;5107568;28;19947;-71
2022/03/31 05:41:14;;;;;;;;;;;;;;;;;;5109127;27;19926;-69
2022/03/31 05:47:22;;;;;;;;;;;;;;;;;;5089927;28;19923;-68
2022/03/31 05:54:42;;;;;;;;;;;;;;;;;;5124917;27;19922;-67
2022/03/31 05:57:08;;;;;;;;;;;;;;;;;;5117537;28;20364;-68
2022/03/31 06:00:31;;;;;;;;;;;;;;;;;;5109041;27;20305;-67
2022/03/31 06:02:57;;;;;;;;;;;;;;;;;;5109245;28;20280;-67
2022/03/31 06:05:23;;;;;;;;;;;;;;;;;;5107627;28;19915;-67
2022/03/31 06:07:51;;;;;;;;;;;;;;;;;;5109436;28;19908;-67
2022/03/31 06:11:10;;;;;;;;;;;;;;;;;;5110305;27;20284;-68
2022/03/31 06:15:58;;;;;;;;;;;;;;;;;;5111021;27;19920;-67
2022/03/31 06:18:24;;;;;;;;;;;;;;;;;;5110469;28;20458;-70
2022/03/31 06:20:50;;;;;;;;;;;;;;;;;;5111272;28;19944;-67
2022/03/31 06:23:16;;;;;;;;;;;;;;;;;;5111258;28;19914;-68
2022/03/31 06:26:17;;;;;;;;;;;;;;;;;;5110874;27;20287;-68
2022/03/31 06:29:49;;;;;;;;;;;;;;;;;;5111180;27;20388;-69
2022/03/31 06:32:15;;;;;;;;;;;;;;;;;;5109475;28;20312;-69
2022/03/31 06:41:06;;;;;;;;;;;;;;;;;;5110804;27;19922;-69
2022/03/31 06:43:28;;;;;;;;;;;;;;;;;;5111354;28;20000;-69
2022/03/31 06:45:54;;;;;;;;;;;;;;;;;;5108233;28;19943;-71
2022/03/31 06:53:05;;;;;;;;;;;;;;;;;;5110413;27;19931;-69
2022/03/31 06:56:02;;;;;;;;;;;;;;;;;;5130321;27;19922;-68
2022/03/31 07:00:51;;;;;;;;;;;;;;;;;;5119628;27;20286;-71
2022/03/31 07:03:17;;;;;;;;;;;;;;;;;;5131558;27;20006;-69
2022/03/31 07:07:58;;;;;;;;;;;;;;;;;;5088734;27;19916;-71
2022/03/31 07:10:24;;;;;;;;;;;;;;;;;;5086873;28;19921;-71
2022/03/31 07:12:50;;;;;;;;;;;;;;;;;;5087900;28;19991;-70
2022/03/31 07:15:16;;;;;;;;;;;;;;;;;;5086803;28;19920;-70
2022/03/31 07:17:42;;;;;;;;;;;;;;;;;;5088127;28;19969;-70
2022/03/31 07:20:08;;;;;;;;;;;;;;;;;;5087304;28;20309;-71
2022/03/31 07:22:35;;;;;;;;;;;;;;;;;;5085961;28;19909;-73
2022/03/31 07:26:52;;;;;;;;;;;;;;;;;;5105795;27;19913;-72
2022/03/31 07:31:13;;;;;;;;;;;;;;;;;;5108161;27;19920;-72
2022/03/31 07:34:26;;;;;;;;;;;;;;;;;;5088041;27;19920;-73
2022/03/31 07:36:53;;;;;;;;;;;;;;;;;;5089832;28;19919;-72
2022/03/31 07:39:19;;;;;;;;;;;;;;;;;;5088781;28;19969;-72
2022/03/31 07:41:45;;;;;;;;;;;;;;;;;;5089704;28;20015;-73
2022/03/31 07:45:35;;;;;;;;;;;;;;;;;;5170924;27;19919;-72
2022/03/31 07:50:05;;;;;;;;;;;;;;;;;;5087626;27;19920;-76
2022/03/31 07:54:02;;;;;;;;;;;;;;;;;;5145820;27;20010;-77
2022/03/31 07:56:28;;;;;;;;;;;;;;;;;;5130599;28;19916;-77
2022/03/31 08:00:56;;;;;;;;;;;;;;;;;;5110372;27;19938;-72
2022/03/31 08:03:24;;;;;;;;;;;;;;;;;;5110552;28;20014;-72
2022/03/31 08:06:39;;;;;;;;;;;;;;;;;;5110505;27;20299;-70
2022/03/31 08:09:05;;;;;;;;;;;;;;;;;;5110696;28;19955;-70
2022/03/31 08:11:31;;;;;;;;;;;;;;;;;;5109975;28;19954;-69
2022/03/31 08:14:35;;;;;;;;;;;;;;;;;;5089980;27;19930;-70
2022/03/31 08:22:34;;;;;;;;;;;;;;;;;;5110209;27;20545;-71
2022/03/31 08:25:00;;;;;;;;;;;;;;;;;;5109004;28;19912;-70
2022/03/31 08:28:45;;;;;;;;;;;;;;;;;;5070380;28;20284;-69
2022/03/31 08:32:11;;;;;;;;;;;;;;;;;;5081403;28;19916;-70
2022/03/31 08:34:37;;;;;;;;;;;;;;;;;;5069561;28;19913;-67
2022/03/31 08:37:03;;;;;;;;;;;;;;;;;;5036107;28;19920;-73
2022/03/31 08:40:31;;;;;;;;;;;;;;;;;;5123194;27;19912;-70
2022/03/31 08:44:39;;;;;;;;;;;;;;;;;;5108854;27;19958;-73
2022/03/31 08:49:13;;;;;;;;;;;;;;;;;;5109301;27;19920;-70
2022/03/31 08:51:39;;;;;;;;;;;;;;;;;;5108180;28;19912;-71
2022/03/31 08:54:05;;;;;;;;;;;;;;;;;;5106490;28;19907;-72
2022/03/31 08:56:31;;;;;;;;;;;;;;;;;;5121466;28;19958;-72
2022/03/31 09:03:26;;;;;;;;;;;;;;;;;;5085005;27;19917;-74
2022/03/31 09:05:52;;;;;;;;;;;;;;;;;;5084581;28;19951;-72
2022/03/31 09:08:37;;;;;;;;;;;;;;;;;;5086741;27;20339;-73
2022/03/31 09:12:22;;;;;;;;;;;;;;;;;;5085050;27;19936;-74
2022/03/31 09:15:44;;;;;;;;;;;;;;;;;;5086716;27;19926;-71
2022/03/31 09:18:10;;;;;;;;;;;;;;;;;;5081354;28;19912;-74
2022/03/31 09:21:32;;;;;;;;;;;;;;;;;;5087944;27;19916;-71
2022/03/31 09:23:58;;;;;;;;;;;;;;;;;;5087598;28;20391;-73
2022/03/31 09:26:27;;;;;;;;;;;;;;;;;;5088321;28;20617;-70
2022/03/31 09:28:53;;;;;;;;;;;;;;;;;;5088487;28;20003;-72
2022/03/31 09:33:06;;;;;;;;;;;;;;;;;;5090174;27;20341;-71
2022/03/31 09:35:32;;;;;;;;;;;;;;;;;;5089636;28;19913;-71
2022/03/31 09:39:05;;;;;;;;;;;;;;;;;;5108833;27;20606;-74
2022/03/31 09:41:31;;;;;;;;;;;;;;;;;;5110061;28;19912;-72
2022/03/31 09:43:57;;;;;;;;;;;;;;;;;;5109430;28;19908;-71
2022/03/31 09:48:43;;;;;;;;;;;;;;;;;;5110130;27;19923;-74
2022/03/31 09:54:31;;;;;;;;;;;;;;;;;;5108384;27;19916;-75
2022/03/31 09:58:09;;;;;;;;;;;;;;;;;;5108739;27;19942;-74
2022/03/31 10:01:32;;;;;;;;;;;;;;;;;;5089169;27;19931;-73
2022/03/31 10:03:58;;;;;;;;;;;;;;;;;;5088169;28;20370;-72
2022/03/31 10:06:24;;;;;;;;;;;;;;;;;;5080183;28;19971;-71
2022/03/31 10:08:50;;;;;;;;;;;;;;;;;;5069952;28;19908;-70
2022/03/31 10:11:16;;;;;;;;;;;;;;;;;;5068950;28;19908;-69
2022/03/31 10:13:42;;;;;;;;;;;;;;;;;;5069225;28;20288;-79
2022/03/31 10:16:09;;;;;;;;;;;;;;;;;;5067234;28;19912;-71
2022/03/31 10:18:35;;;;;;;;;;;;;;;;;;5067989;28;19923;-70
2022/03/31 10:21:02;;;;;;;;;;;;;;;;;;5068475;28;19924;-70
2022/03/31 10:25:08;;;;;;;;;;;;;;;;;;5110876;27;19922;-70
2022/03/31 10:28:25;;;;;;;;;;;;;;;;;;5110054;27;19923;-74
2022/03/31 10:32:04;;;;;;;;;;;;;;;;;;5111034;27;19922;-68
2022/03/31 10:34:30;;;;;;;;;;;;;;;;;;5110989;28;19912;-70
2022/03/31 10:36:56;;;;;;;;;;;;;;;;;;5109954;28;20410;-69
2022/03/31 10:39:22;;;;;;;;;;;;;;;;;;5111676;28;19977;-70
2022/03/31 10:42:01;;;;;;;;;;;;;;;;;;5150409;27;19933;-68
2022/03/31 10:48:20;;;;;;;;;;;;;;;;;;5110732;27;19912;-73
2022/03/31 10:50:46;;;;;;;;;;;;;;;;;;5110637;28;19943;-68
2022/03/31 10:53:12;;;;;;;;;;;;;;;;;;5123853;28;19958;-68
2022/03/31 10:57:17;;;;;;;;;;;;;;;;;;5109280;27;19916;-70
2022/03/31 11:00:45;;;;;;;;;;;;;;;;;;5108521;27;19920;-69
2022/03/31 11:03:11;;;;;;;;;;;;;;;;;;5099175;28;20631;-68
2022/03/31 11:05:37;;;;;;;;;;;;;;;;;;5101440;28;20046;-68
2022/03/31 11:08:03;;;;;;;;;;;;;;;;;;5141530;27;19908;-68
2022/03/31 11:10:29;;;;;;;;;;;;;;;;;;5100962;28;19908;-68
2022/03/31 11:12:55;;;;;;;;;;;;;;;;;;5088963;28;19917;-68
2022/03/31 11:15:24;;;;;;;;;;;;;;;;;;5102447;28;19912;-68
2022/03/31 11:19:00;;;;;;;;;;;;;;;;;;5088133;27;19916;-68
2022/03/31 11:21:26;;;;;;;;;;;;;;;;;;5093441;28;19966;-68
2022/03/31 11:24:13;;;;;;;;;;;;;;;;;;5088920;27;19923;-68
2022/03/31 11:26:40;;;;;;;;;;;;;;;;;;5089530;28;19912;-68
2022/03/31 11:29:06;;;;;;;;;;;;;;;;;;5090172;28;19908;-68
2022/03/31 11:31:32;;;;;;;;;;;;;;;;;;5089502;28;19934;-69
2022/03/31 11:34:48;;;;;;;;;;;;;;;;;;5091424;28;19931;-68
2022/03/31 11:41:16;;;;;;;;;;;;;;;;;;5110569;27;19916;-68
2022/03/31 11:44:10;;;;;;;;;;;;;;;;;;5090741;27;20261;-68
2022/03/31 11:46:35;;;;;;;;;;;;;;;;;;5090463;28;19919;-67
2022/03/31 11:56:45;;;;;;;;;;;;;;;;;;5088880;27;20388;-68
2022/03/31 11:59:14;;;;;;;;;;;;;;;;;;5071190;28;19913;-68
2022/03/31 12:01:48;;;;;;;;;;;;;;;;;;5070474;28;19998;-69
2022/03/31 12:04:14;;;;;;;;;;;;;;;;;;5069861;28;19909;-69
2022/03/31 12:06:39;;;;;;;;;;;;;;;;;;5068561;28;19923;-70
2022/03/31 12:16:02;;;;;;;;;;;;;;;;;;5091068;27;20383;-66
2022/03/31 12:18:30;;;;;;;;;;;;;;;;;;5090522;28;19920;-70
2022/03/31 12:21:48;;;;;;;;;;;;;;;;;;5070885;28;19916;-71
2022/03/31 12:24:14;;;;;;;;;;;;;;;;;;5069121;28;19916;-71
2022/03/31 12:26:40;;;;;;;;;;;;;;;;;;5070725;28;19948;-73
2022/03/31 12:29:06;;;;;;;;;;;;;;;;;;5062170;28;20007;-71
2022/03/31 12:31:35;;;;;;;;;;;;;;;;;;5066136;28;19951;-71
2022/03/31 12:34:01;;;;;;;;;;;;;;;;;;5069552;28;20377;-72
2022/03/31 12:37:57;;;;;;;;;;;;;;;;;;5090304;28;19912;-70
2022/03/31 12:40:35;;;;;;;;;;;;;;;;;;5110870;27;19912;-69
2022/03/31 12:43:01;;;;;;;;;;;;;;;;;;5110368;28;19912;-70
2022/03/31 12:45:28;;;;;;;;;;;;;;;;;;5109652;28;19935;-69
2022/03/31 12:47:54;;;;;;;;;;;;;;;;;;5108679;28;20325;-69
2022/03/31 12:50:21;;;;;;;;;;;;;;;;;;5109376;28;19912;-69
2022/03/31 12:52:47;;;;;;;;;;;;;;;;;;5108978;28;19908;-69
2022/03/31 12:55:13;;;;;;;;;;;;;;;;;;5108916;28;20305;-70
2022/03/31 12:57:39;;;;;;;;;;;;;;;;;;5110295;28;19908;-70
2022/03/31 13:00:28;;;;;;;;;;;;;;;;;;5111294;27;19919;-72
2022/03/31 13:02:56;;;;;;;;;;;;;;;;;;5111575;28;20388;-70
2022/03/31 13:06:06;;;;;;;;;;;;;;;;;;5111183;27;19912;-68
2022/03/31 13:11:59;;;;;;;;;;;;;;;;;;5111541;27;19912;-68
2022/03/31 13:15:40;;;;;;;;;;;;;;;;;;5111753;27;20306;-68
2022/03/31 13:18:07;;;;;;;;;;;;;;;;;;5110603;28;19944;-68
2022/03/31 13:21:04;;;;;;;;;;;;;;;;;;5111713;27;19912;-68
2022/03/31 13:32:09;;;;;;;;;;;;;;;;;;5152632;27;20335;-67
2022/03/31 13:37:53;;;;;;;;;;;;;;;;;;5104397;27;19916;-69
2022/03/31 13:40:19;;;;;;;;;;;;;;;;;;5091264;28;20000;-68
2022/03/31 13:42:45;;;;;;;;;;;;;;;;;;5090985;28;19936;-68
2022/03/31 13:55:40;;;;;;;;;;;;;;;;;;5111305;28;19919;-67
2022/03/31 14:03:19;;;;;;;;;;;;;;;;;;5111293;27;19912;-67
2022/03/31 14:08:12;;;;;;;;;;;;;;;;;;5092049;27;19912;-67
2022/03/31 14:11:51;;;;;;;;;;;;;;;;;;5043427;28;19940;-68
2022/03/31 14:14:18;;;;;;;;;;;;;;;;;;5031517;28;19920;-68
2022/03/31 14:20:58;;;;;;;;;;;;;;;;;;5112111;27;19923;-67
2022/03/31 14:25:26;;;;;;;;;;;;;;;;;;5111271;27;20406;-68
2022/03/31 14:32:01;;;;;;;;;;;;;;;;;;5111317;27;19912;-67
2022/03/31 14:34:48;;;;;;;;;;;;;;;;;;5091242;27;19916;-68
2022/03/31 14:39:22;;;;;;;;;;;;;;;;;;5076218;27;2750894;-68
2022/03/31 14:41:48;;;;;;;;;;;;;;;;;;5173705;27;19955;-68
2022/03/31 14:44:14;;;;;;;;;;;;;;;;;;5151574;27;19943;-67
2022/03/31 14:49:04;;;;;;;;;;;;;;;;;;5111877;27;20279;-70
2022/03/31 14:53:22;;;;;;;;;;;;;;;;;;5091002;27;20307;-66
2022/03/31 14:55:48;;;;;;;;;;;;;;;;;;5091443;28;19994;-67
2022/03/31 14:58:14;;;;;;;;;;;;;;;;;;5091210;28;19999;-69
2022/03/31 15:00:41;;;;;;;;;;;;;;;;;;5090773;28;19908;-70
2022/03/31 15:07:26;;;;;;;;;;;;;;;;;;5090990;27;19916;-67
2022/03/31 15:14:41;;;;;;;;;;;;;;;;;;5152540;27;20270;-68
2022/03/31 15:17:08;;;;;;;;;;;;;;;;;;5134480;27;20253;-68
2022/03/31 15:23:22;;;;;;;;;;;;;;;;;;5112429;27;19916;-68
2022/03/31 15:27:43;;;;;;;;;;;;;;;;;;5131733;27;19922;-68
2022/03/31 15:30:40;;;;;;;;;;;;;;;;;;5091594;27;19919;-67
2022/03/31 15:33:07;;;;;;;;;;;;;;;;;;5090293;28;19919;-68
2022/03/31 15:35:33;;;;;;;;;;;;;;;;;;5087574;28;20307;-69
2022/03/31 15:37:59;;;;;;;;;;;;;;;;;;5088143;28;20027;-69
2022/03/31 15:41:45;;;;;;;;;;;;;;;;;;5111274;27;19938;-68
2022/03/31 15:45:10;;;;;;;;;;;;;;;;;;5110705;27;19916;-67
2022/03/31 15:47:36;;;;;;;;;;;;;;;;;;5110949;28;20418;-66
2022/03/31 15:52:11;;;;;;;;;;;;;;;;;;5071082;28;19912;-66
2022/03/31 15:55:01;;;;;;;;;;;;;;;;;;5111475;27;19919;-67
2022/03/31 15:57:28;;;;;;;;;;;;;;;;;;5111616;28;19919;-67
2022/03/31 16:02:42;;;;;;;;;;;;;;;;;;5111809;27;19922;-69
2022/03/31 16:05:08;;;;;;;;;;;;;;;;;;5111640;28;19936;-69
2022/03/31 16:08:29;;;;;;;;;;;;;;;;;;5132440;27;20014;-68
2022/03/31 16:42:27;;;;;;;;;;;;;;;;;;5071267;28;20385;-63
2022/03/31 16:44:53;;;;;;;;;;;;;;;;;;5070841;28;19948;-63
2022/03/31 16:47:19;;;;;;;;;;;;;;;;;;5070822;28;20290;-63
2022/03/31 16:52:05;;;;;;;;;;;;;;;;;;5111574;27;19915;-67
2022/03/31 16:54:31;;;;;;;;;;;;;;;;;;5111894;28;20359;-67
2022/03/31 16:56:58;;;;;;;;;;;;;;;;;;5111839;28;19915;-65
2022/03/31 16:59:24;;;;;;;;;;;;;;;;;;5110021;28;20291;-64
2022/03/31 17:04:49;;;;;;;;;;;;;;;;;;5092234;27;19916;-63
2022/03/31 17:07:15;;;;;;;;;;;;;;;;;;5091045;28;20003;-64
2022/03/31 17:09:40;;;;;;;;;;;;;;;;;;5090201;28;19944;-64
2022/03/31 17:12:06;;;;;;;;;;;;;;;;;;5091293;28;19909;-63
2022/03/31 17:14:32;;;;;;;;;;;;;;;;;;5090828;28;19977;-64
2022/03/31 17:16:59;;;;;;;;;;;;;;;;;;5091228;28;19951;-63
2022/03/31 17:19:24;;;;;;;;;;;;;;;;;;5090702;28;19908;-62
2022/03/31 17:22:38;;;;;;;;;;;;;;;;;;5091319;28;20290;-61
2022/03/31 17:25:04;;;;;;;;;;;;;;;;;;5090241;28;20007;-64
2022/03/31 17:29:12;;;;;;;;;;;;;;;;;;5091576;27;19938;-62
2022/03/31 17:31:38;;;;;;;;;;;;;;;;;;5091331;28;19936;-63
2022/03/31 17:34:04;;;;;;;;;;;;;;;;;;5090780;28;19915;-63
2022/03/31 17:39:17;;;;;;;;;;;;;;;;;;5111776;27;19916;-63
2022/03/31 17:45:15;;;;;;;;;;;;;;;;;;5091346;28;20310;-63
2022/03/31 17:47:41;;;;;;;;;;;;;;;;;;5091324;28;19957;-63
2022/03/31 17:50:07;;;;;;;;;;;;;;;;;;5089522;28;20322;-62
2022/03/31 17:52:33;;;;;;;;;;;;;;;;;;5091453;28;19955;-63
2022/03/31 17:54:59;;;;;;;;;;;;;;;;;;5089597;28;19914;-62
2022/03/31 17:59:06;;;;;;;;;;;;;;;;;;5111735;27;19916;-62
2022/03/31 18:01:32;;;;;;;;;;;;;;;;;;5111754;28;20011;-63
2022/03/31 18:03:58;;;;;;;;;;;;;;;;;;5111248;28;19912;-63
2022/03/31 18:07:54;;;;;;;;;;;;;;;;;;5111808;27;19918;-63
2022/03/31 18:16:31;;;;;;;;;;;;;;;;;;5091131;28;19916;-64
2022/03/31 18:18:57;;;;;;;;;;;;;;;;;;5089887;28;20003;-62
2022/03/31 18:21:23;;;;;;;;;;;;;;;;;;5089901;28;19999;-64
2022/03/31 18:28:25;;;;;;;;;;;;;;;;;;5112012;27;19918;-64
2022/03/31 18:34:57;;;;;;;;;;;;;;;;;;5111680;28;19919;-62
2022/03/31 18:39:58;;;;;;;;;;;;;;;;;;5111856;27;19916;-63
2022/03/31 18:42:24;;;;;;;;;;;;;;;;;;5111596;28;19956;-63
2022/03/31 18:46:51;;;;;;;;;;;;;;;;;;5091324;28;19919;-64
2022/03/31 18:49:17;;;;;;;;;;;;;;;;;;5091321;28;19958;-64
2022/03/31 18:54:02;;;;;;;;;;;;;;;;;;5091450;27;19920;-63
2022/03/31 18:56:27;;;;;;;;;;;;;;;;;;5091245;28;20007;-63
2022/03/31 19:01:24;;;;;;;;;;;;;;;;;;5111820;27;19938;-64
2022/03/31 19:11:36;;;;;;;;;;;;;;;;;;5091286;27;19912;-64
2022/03/31 19:14:01;;;;;;;;;;;;;;;;;;5089539;28;19919;-64
2022/03/31 19:17:57;;;;;;;;;;;;;;;;;;5111893;27;19988;-63
2022/03/31 19:21:20;;;;;;;;;;;;;;;;;;5090996;27;19913;-64
2022/03/31 19:23:46;;;;;;;;;;;;;;;;;;5091348;28;20360;-64
2022/03/31 19:26:12;;;;;;;;;;;;;;;;;;5091246;28;20007;-62
2022/03/31 19:28:38;;;;;;;;;;;;;;;;;;5089534;28;20334;-63
2022/03/31 19:31:04;;;;;;;;;;;;;;;;;;5088346;28;20383;-63
2022/03/31 19:33:30;;;;;;;;;;;;;;;;;;5088737;28;19937;-63
2022/03/31 19:35:56;;;;;;;;;;;;;;;;;;5089635;28;19912;-63
2022/03/31 19:42:19;;;;;;;;;;;;;;;;;;5091705;27;2312321;-64
2022/03/31 19:44:45;;;;;;;;;;;;;;;;;;5173780;27;19911;-64
2022/03/31 19:47:11;;;;;;;;;;;;;;;;;;5173610;27;19911;-64
2022/03/31 19:49:55;;;;;;;;;;;;;;;;;;5111932;27;19916;-64
2022/03/31 19:53:38;;;;;;;;;;;;;;;;;;5112599;27;20270;-64
2022/03/31 19:56:04;;;;;;;;;;;;;;;;;;5111298;28;19919;-64
2022/03/31 19:58:31;;;;;;;;;;;;;;;;;;5111600;28;19908;-64
2022/03/31 20:00:57;;;;;;;;;;;;;;;;;;5111653;28;19908;-64
2022/03/31 20:04:08;;;;;;;;;;;;;;;;;;5112187;27;19916;-64
2022/03/31 20:11:30;;;;;;;;;;;;;;;;;;5112495;27;19938;-64
2022/03/31 20:14:08;;;;;;;;;;;;;;;;;;5111786;27;19916;-64
2022/03/31 20:16:35;;;;;;;;;;;;;;;;;;5111788;28;20321;-64
2022/03/31 20:19:00;;;;;;;;;;;;;;;;;;5111825;28;20351;-64
2022/03/31 20:21:26;;;;;;;;;;;;;;;;;;5111840;28;19908;-64
2022/03/31 20:23:52;;;;;;;;;;;;;;;;;;5111269;28;19960;-64
2022/03/31 20:26:19;;;;;;;;;;;;;;;;;;5111521;28;19908;-63
2022/03/31 20:28:45;;;;;;;;;;;;;;;;;;5111477;28;20286;-64
2022/03/31 20:33:11;;;;;;;;;;;;;;;;;;5112468;27;20382;-64
2022/03/31 20:35:37;;;;;;;;;;;;;;;;;;5110614;28;19912;-64
2022/03/31 20:38:03;;;;;;;;;;;;;;;;;;5111317;28;19954;-64
2022/03/31 20:41:17;;;;;;;;;;;;;;;;;;5112177;27;19916;-64
2022/03/31 20:43:43;;;;;;;;;;;;;;;;;;5111448;28;19994;-64
2022/03/31 20:46:10;;;;;;;;;;;;;;;;;;5111641;28;20260;-63
2022/03/31 20:50:05;;;;;;;;;;;;;;;;;;5111753;27;19912;-63
2022/03/31 20:58:10;;;;;;;;;;;;;;;;;;5111733;27;19915;-63
2022/03/31 21:00:35;;;;;;;;;;;;;;;;;;5111915;28;19922;-63
2022/03/31 21:03:13;;;;;;;;;;;;;;;;;;5112473;27;19916;-63
2022/03/31 21:05:38;;;;;;;;;;;;;;;;;;5110078;28;19912;-64
2022/03/31 21:08:05;;;;;;;;;;;;;;;;;;5111710;28;20352;-64
2022/03/31 21:10:31;;;;;;;;;;;;;;;;;;5111698;28;19912;-64
2022/03/31 21:13:18;;;;;;;;;;;;;;;;;;5152652;27;20426;-64
2022/03/31 21:16:54;;;;;;;;;;;;;;;;;;5091594;27;19919;-63
2022/03/31 21:19:34;;;;;;;;;;;;;;;;;;5111637;27;19923;-64
2022/03/31 21:22:00;;;;;;;;;;;;;;;;;;5111746;28;19912;-63
2022/03/31 21:24:26;;;;;;;;;;;;;;;;;;5111763;28;19965;-63
2022/03/31 21:26:54;;;;;;;;;;;;;;;;;;5109908;28;19908;-63
2022/03/31 21:29:20;;;;;;;;;;;;;;;;;;5110776;28;20287;-64
2022/03/31 21:31:47;;;;;;;;;;;;;;;;;;5110224;28;19908;-63
2022/03/31 21:34:13;;;;;;;;;;;;;;;;;;5111519;28;19908;-64
2022/03/31 21:36:39;;;;;;;;;;;;;;;;;;5111411;28;19908;-65
2022/03/31 21:40:31;;;;;;;;;;;;;;;;;;5111761;27;19916;-64
2022/03/31 21:43:00;;;;;;;;;;;;;;;;;;5111775;28;20256;-63
2022/03/31 21:45:26;;;;;;;;;;;;;;;;;;5111691;28;19950;-63
2022/03/31 21:47:52;;;;;;;;;;;;;;;;;;5111256;28;19907;-63
2022/03/31 21:50:18;;;;;;;;;;;;;;;;;;5111592;28;19923;-64
2022/03/31 21:55:10;;;;;;;;;;;;;;;;;;5111716;27;19913;-63
2022/03/31 21:57:37;;;;;;;;;;;;;;;;;;5111629;28;19919;-63
2022/03/31 22:00:03;;;;;;;;;;;;;;;;;;5111859;28;19908;-63
2022/03/31 22:02:29;;;;;;;;;;;;;;;;;;5111191;28;19915;-63
2022/03/31 22:05:24;;;;;;;;;;;;;;;;;;5091393;27;19912;-64
2022/03/31 22:07:50;;;;;;;;;;;;;;;;;;5091390;28;19912;-64
2022/03/31 22:13:00;;;;;;;;;;;;;;;;;;5091301;28;19915;-64
2022/03/31 22:16:15;;;;;;;;;;;;;;;;;;5091460;27;19912;-64
2022/03/31 22:22:19;;;;;;;;;;;;;;;;;;5091741;27;2316970;-64
2022/03/31 22:25:19;;;;;;;;;;;;;;;;;;5112106;27;19916;-62
2022/03/31 22:27:45;;;;;;;;;;;;;;;;;;5111625;28;20002;-62
2022/03/31 22:30:12;;;;;;;;;;;;;;;;;;5109886;28;19995;-63
2022/03/31 22:32:38;;;;;;;;;;;;;;;;;;5111598;28;19908;-62
2022/03/31 22:37:16;;;;;;;;;;;;;;;;;;5111699;27;19916;-63
2022/03/31 22:39:42;;;;;;;;;;;;;;;;;;5110437;28;19961;-64
2022/03/31 22:46:51;;;;;;;;;;;;;;;;;;5132771;27;20349;-64
2022/03/31 22:49:17;;;;;;;;;;;;;;;;;;5114191;28;19918;-63
2022/03/31 22:52:42;;;;;;;;;;;;;;;;;;5091427;27;19934;-64
2022/03/31 22:56:48;;;;;;;;;;;;;;;;;;5112483;27;19917;-62
2022/03/31 22:59:14;;;;;;;;;;;;;;;;;;5111324;28;19912;-62
2022/03/31 23:01:42;;;;;;;;;;;;;;;;;;5111596;28;19941;-62
2022/03/31 23:04:08;;;;;;;;;;;;;;;;;;5111849;28;20350;-63
2022/03/31 23:08:09;;;;;;;;;;;;;;;;;;5112415;27;20394;-64
2022/03/31 23:12:11;;;;;;;;;;;;;;;;;;5111831;27;19916;-64
2022/03/31 23:14:37;;;;;;;;;;;;;;;;;;5111758;28;19998;-64
2022/03/31 23:17:03;;;;;;;;;;;;;;;;;;5111711;28;19998;-63
2022/03/31 23:19:29;;;;;;;;;;;;;;;;;;5111514;28;20404;-63
2022/03/31 23:21:54;;;;;;;;;;;;;;;;;;5111563;28;19908;-64
2022/03/31 23:24:20;;;;;;;;;;;;;;;;;;5111583;28;19952;-64
2022/03/31 23:30:21;;;;;;;;;;;;;;;;;;5111710;27;19922;-64